Time;durP1;ratioP1;P1;durP2;ratioP2;P2;SDS_P1;SDS_P2;PMS_P1;PMS_P2;Temp;Humidity;BMP_temperature;BMP_pressure;BME280_temperature;BME280_humidity;BME280_pressure;Samples;Min_cycle;Max_cycle;Signal;HPM_P1;HPM_P2
2022/03/29 00:02:25;;;;;;;17.20;10.35;;;;;;;8.84;53.63;99613.91;4515763;31;34512;-64
2022/03/29 00:04:52;;;;;;;19.62;10.65;;;;;;;8.72;54.09;99610.44;4516715;31;33811;-64
2022/03/29 00:07:20;;;;;;;18.77;10.77;;;;;;;9.18;52.88;99611.31;4516398;31;34438;-63
2022/03/29 00:09:47;;;;;;;17.98;10.75;;;;;;;9.17;52.99;99604.25;4515893;31;34021;-64
2022/03/29 00:12:15;;;;;;;18.75;10.60;;;;;;;9.07;53.18;99609.47;4516569;31;33973;-64
2022/03/29 00:14:42;;;;;;;17.35;10.38;;;;;;;9.27;52.87;99606.34;4516502;31;33536;-65
2022/03/29 00:17:10;;;;;;;19.98;11.43;;;;;;;9.08;53.07;99594.88;4514349;31;34044;-63
2022/03/29 00:19:37;;;;;;;18.15;10.35;;;;;;;8.92;53.56;99593.75;4516070;31;34261;-63
2022/03/29 00:22:04;;;;;;;18.52;10.18;;;;;;;8.62;54.27;99598.34;4516250;31;33706;-64
2022/03/29 00:24:32;;;;;;;18.70;10.30;;;;;;;9.05;53.15;99585.38;4515098;31;33347;-63
2022/03/29 00:27:00;;;;;;;16.67;9.60;;;;;;;9.31;52.60;99586.66;4516665;31;33627;-64
2022/03/29 00:29:28;;;;;;;17.95;10.32;;;;;;;8.78;54.27;99577.81;4515937;31;34140;-63
2022/03/29 00:31:55;;;;;;;17.77;10.55;;;;;;;9.12;53.39;99577.09;4516613;31;33593;-64
2022/03/29 00:34:23;;;;;;;16.20;9.93;;;;;;;8.97;53.46;99572.22;4515960;31;33336;-64
2022/03/29 00:36:50;;;;;;;15.43;9.77;;;;;;;9.04;53.37;99567.47;4516212;31;33710;-64
2022/03/29 00:39:18;;;;;;;14.57;8.90;;;;;;;9.30;52.60;99563.31;4516035;31;34159;-64
2022/03/29 00:41:45;;;;;;;14.43;8.43;;;;;;;8.85;53.91;99564.16;4516330;31;34213;-65
2022/03/29 00:44:15;;;;;;;15.27;8.60;;;;;;;9.07;53.34;99563.47;4516232;31;33620;-64
2022/03/29 00:46:43;;;;;;;15.90;8.80;;;;;;;8.92;53.53;99559.44;4516347;31;33895;-66
2022/03/29 00:49:10;;;;;;;16.23;8.75;;;;;;;8.92;53.53;99559.44;4515692;31;34640;-63
2022/03/29 00:51:38;;;;;;;18.08;8.70;;;;;;;8.67;53.99;99564.34;4515944;31;34622;-65
2022/03/29 00:54:06;;;;;;;17.17;8.40;;;;;;;8.72;53.85;99559.03;4515985;31;33758;-63
2022/03/29 00:56:34;;;;;;;14.38;7.68;;;;;;;8.97;53.54;99556.81;4514908;31;33778;-63
2022/03/29 00:59:01;;;;;;;14.60;8.43;;;;;;;8.98;53.49;99552.22;4516268;31;34079;-64
2022/03/29 01:01:29;;;;;;;13.40;7.75;;;;;;;8.81;53.67;99542.19;4515611;31;34065;-64
2022/03/29 01:03:57;;;;;;;13.65;8.13;;;;;;;8.70;53.92;99539.53;4516164;31;33562;-64
2022/03/29 01:06:25;;;;;;;11.38;7.47;;;;;;;8.65;54.37;99536.72;4516263;31;34770;-64
2022/03/29 01:08:52;;;;;;;14.07;7.55;;;;;;;8.73;54.38;99530.94;4514763;31;34223;-63
2022/03/29 01:11:20;;;;;;;12.75;7.93;;;;;;;8.96;53.83;99535.41;4515022;31;33708;-65
2022/03/29 01:13:47;;;;;;;13.10;8.85;;;;;;;8.91;53.82;99530.72;4514644;31;34407;-63
2022/03/29 01:19:05;;;;;;;13.60;8.65;;;;;;;8.61;54.72;99525.56;4499751;31;34732;-63
2022/03/29 01:21:33;;;;;;;13.73;8.30;;;;;;;9.37;53.02;99531.53;4498552;31;34792;-62
2022/03/29 01:24:01;;;;;;;13.85;8.32;;;;;;;8.88;54.11;99530.41;4503794;31;33082;-63
2022/03/29 01:26:29;;;;;;;14.15;8.55;;;;;;;9.16;53.53;99529.53;4515966;31;33680;-64
2022/03/29 01:28:57;;;;;;;13.80;8.35;;;;;;;8.06;56.05;99517.94;4514571;31;34309;-63
2022/03/29 01:31:25;;;;;;;15.48;8.80;;;;;;;8.12;56.16;99523.22;4515559;31;34348;-63
2022/03/29 01:33:53;;;;;;;16.02;9.00;;;;;;;8.12;56.12;99522.38;4507901;31;33423;-64
2022/03/29 01:36:21;;;;;;;13.55;8.38;;;;;;;8.88;54.53;99519.59;4501053;31;33657;-63
2022/03/29 01:38:48;;;;;;;13.30;8.25;;;;;;;9.07;53.97;99518.28;4515369;31;34276;-64
2022/03/29 01:41:16;;;;;;;13.50;7.87;;;;;;;8.19;56.57;99520.37;4515568;31;34292;-63
2022/03/29 01:43:43;;;;;;;16.42;9.02;;;;;;;8.51;55.86;99509.97;4515702;31;34427;-63
2022/03/29 01:46:12;;;;;;;16.55;8.90;;;;;;;7.92;57.77;99507.38;4515987;31;34116;-64
2022/03/29 01:48:40;;;;;;;14.40;7.80;;;;;;;8.64;55.31;99495.34;4515669;31;33935;-64
2022/03/29 01:51:07;;;;;;;15.23;8.18;;;;;;;8.11;56.45;99489.13;4514747;31;34032;-63
2022/03/29 01:53:35;;;;;;;12.35;7.68;;;;;;;8.10;56.60;99483.97;4515751;31;33531;-64
2022/03/29 01:56:03;;;;;;;13.10;8.10;;;;;;;8.10;56.84;99474.00;4515287;31;34893;-64
2022/03/29 01:58:30;;;;;;;14.00;8.55;;;;;;;8.44;56.11;99482.25;4516056;31;34172;-64
2022/03/29 02:00:58;;;;;;;13.52;7.95;;;;;;;9.13;54.26;99481.28;4515423;31;35140;-64
2022/03/29 02:03:26;;;;;;;14.23;8.23;;;;;;;9.21;53.67;99478.19;4515235;31;34455;-64
2022/03/29 02:05:53;;;;;;;12.88;7.97;;;;;;;8.30;56.25;99476.28;4515799;31;33880;-63
2022/03/29 02:08:21;;;;;;;15.77;8.80;;;;;;;7.93;57.49;99468.53;4515471;31;34277;-64
2022/03/29 02:10:48;;;;;;;14.57;8.40;;;;;;;8.27;56.47;99457.00;4515382;31;33795;-64
2022/03/29 02:13:16;;;;;;;12.15;7.97;;;;;;;7.83;57.38;99464.78;4515712;31;33416;-63
2022/03/29 02:15:44;;;;;;;15.38;9.00;;;;;;;7.49;58.50;99454.59;4514728;31;33669;-64
2022/03/29 02:18:11;;;;;;;15.32;8.88;;;;;;;7.48;58.88;99461.06;4513706;31;34297;-63
2022/03/29 02:20:39;;;;;;;13.95;8.95;;;;;;;8.01;57.19;99457.34;4515282;31;34663;-63
2022/03/29 02:23:07;;;;;;;14.77;8.35;;;;;;;7.97;57.08;99458.06;4514915;31;34224;-64
2022/03/29 02:25:35;;;;;;;14.07;8.98;;;;;;;8.16;56.50;99450.59;4515694;31;33906;-63
2022/03/29 02:28:03;;;;;;;14.30;7.80;;;;;;;8.79;54.59;99451.50;4515485;31;34127;-63
2022/03/29 02:30:32;;;;;;;15.00;7.85;;;;;;;8.69;54.78;99445.94;4514563;31;34041;-64
2022/03/29 02:33:01;;;;;;;11.20;7.37;;;;;;;8.85;54.44;99447.00;4515520;31;33884;-63
2022/03/29 02:35:30;;;;;;;14.52;9.20;;;;;;;8.57;55.24;99446.81;4515498;31;34759;-64
2022/03/29 02:37:59;;;;;;;13.65;8.60;;;;;;;8.37;56.19;99451.81;4515130;31;34416;-63
2022/03/29 02:40:26;;;;;;;13.45;8.48;;;;;;;8.52;55.95;99444.00;4515318;31;34107;-63
2022/03/29 02:42:57;;;;;;;13.65;8.07;;;;;;;7.92;57.38;99447.13;4515285;31;33487;-64
2022/03/29 02:45:26;;;;;;;15.57;8.70;;;;;;;7.90;57.49;99441.97;4515169;31;34853;-63
2022/03/29 02:47:56;;;;;;;13.57;8.15;;;;;;;7.72;57.90;99448.34;4513917;31;34144;-63
2022/03/29 02:50:24;;;;;;;13.82;8.52;;;;;;;8.34;56.14;99446.91;4514395;31;34291;-64
2022/03/29 02:52:54;;;;;;;11.63;7.20;;;;;;;8.09;56.88;99434.50;4515306;31;33576;-63
2022/03/29 02:55:26;;;;;;;14.30;7.90;;;;;;;7.83;57.52;99429.66;4514968;31;33906;-64
2022/03/29 02:57:54;;;;;;;14.57;8.60;;;;;;;7.87;57.36;99433.53;4514866;31;34427;-64
2022/03/29 03:00:22;;;;;;;11.20;7.68;;;;;;;7.85;57.42;99430.25;4514087;31;34105;-63
2022/03/29 03:02:51;;;;;;;12.40;7.50;;;;;;;8.02;56.97;99436.53;4515082;31;33542;-63
2022/03/29 03:05:24;;;;;;;16.60;8.48;;;;;;;7.82;57.57;99423.44;4515072;31;33804;-64
2022/03/29 03:07:52;;;;;;;13.10;7.62;;;;;;;7.81;57.56;99430.72;4514084;31;34417;-64
2022/03/29 03:10:19;;;;;;;11.45;7.80;;;;;;;8.09;57.02;99436.41;4514399;31;33718;-64
2022/03/29 03:12:48;;;;;;;12.27;8.23;;;;;;;7.52;58.51;99426.31;4515062;31;34381;-63
2022/03/29 03:15:20;;;;;;;13.18;7.95;;;;;;;7.79;57.80;99422.03;4514714;31;33956;-63
2022/03/29 03:17:47;;;;;;;13.32;7.85;;;;;;;7.92;57.74;99429.03;4512871;31;34415;-66
2022/03/29 03:20:15;;;;;;;11.60;7.70;;;;;;;7.63;58.80;99422.78;4506634;31;34838;-65
2022/03/29 03:22:43;;;;;;;11.98;8.10;;;;;;;8.19;57.26;99432.03;4512320;31;33398;-65
2022/03/29 03:25:11;;;;;;;15.73;7.90;;;;;;;7.76;58.22;99427.91;4483106;32;34598;-63
2022/03/29 03:27:40;;;;;;;14.13;8.07;;;;;;;7.86;57.95;99427.31;4483132;32;34109;-63
2022/03/29 03:30:13;;;;;;;16.30;7.78;;;;;;;7.91;57.89;99418.50;4482819;32;33818;-64
2022/03/29 03:32:42;;;;;;;13.43;7.43;;;;;;;7.83;58.17;99422.37;4482896;32;33561;-63
2022/03/29 03:35:10;;;;;;;12.60;8.18;;;;;;;7.88;58.05;99411.66;4482611;32;33596;-63
2022/03/29 03:37:38;;;;;;;13.80;7.82;;;;;;;7.81;58.26;99414.50;4482690;32;35014;-64
2022/03/29 03:40:07;;;;;;;12.00;7.47;;;;;;;8.24;57.27;99401.56;4482553;32;34751;-63
2022/03/29 03:42:35;;;;;;;11.00;7.28;;;;;;;7.89;57.97;99407.94;4499926;31;33988;-64
2022/03/29 03:45:04;;;;;;;11.48;7.25;;;;;;;8.06;57.56;99402.59;4514101;31;33888;-64
2022/03/29 03:47:32;;;;;;;12.55;7.22;;;;;;;7.85;58.00;99406.75;4514570;31;34119;-64
2022/03/29 03:50:00;;;;;;;13.40;7.50;;;;;;;8.25;57.02;99400.53;4514193;31;34130;-64
2022/03/29 03:52:27;;;;;;;15.82;8.43;;;;;;;8.55;56.33;99399.44;4514129;31;34218;-63
2022/03/29 03:54:56;;;;;;;12.25;7.32;;;;;;;8.48;56.41;99396.88;4514381;31;33972;-63
2022/03/29 03:57:23;;;;;;;17.75;7.70;;;;;;;7.89;57.82;99412.50;4514374;31;34193;-63
2022/03/29 03:59:52;;;;;;;15.23;7.28;;;;;;;7.92;58.15;99402.03;4514069;31;34788;-66
2022/03/29 04:02:19;;;;;;;12.60;7.40;;;;;;;8.39;56.29;99399.13;4516482;31;33260;-64
2022/03/29 04:04:48;;;;;;;12.88;7.15;;;;;;;7.72;58.08;99399.75;4500807;31;34881;-63
2022/03/29 04:07:15;;;;;;;12.77;7.15;;;;;;;7.90;57.97;99401.44;4500469;31;34996;-66
2022/03/29 04:09:42;;;;;;;13.10;7.87;;;;;;;8.22;57.10;99396.41;4500225;31;34283;-65
2022/03/29 04:12:11;;;;;;;13.15;7.78;;;;;;;8.39;56.54;99392.91;4500490;31;33740;-65
2022/03/29 04:14:38;;;;;;;13.10;7.30;;;;;;;7.73;58.42;99389.75;4500481;31;33687;-62
2022/03/29 04:17:06;;;;;;;12.35;6.90;;;;;;;8.34;56.66;99393.66;4500657;31;34237;-63
2022/03/29 04:19:33;;;;;;;12.37;7.72;;;;;;;8.29;56.75;99387.31;4497989;31;34050;-65
2022/03/29 04:22:01;;;;;;;13.73;7.55;;;;;;;7.72;58.71;99393.53;4504133;31;33075;-67
2022/03/29 04:24:28;;;;;;;11.32;7.37;;;;;;;8.25;57.42;99389.72;4516193;31;33914;-66
2022/03/29 04:26:56;;;;;;;11.77;8.00;;;;;;;8.30;57.25;99389.78;4516372;31;33008;-71
2022/03/29 04:29:23;;;;;;;12.75;7.78;;;;;;;8.30;56.98;99389.78;4515871;31;34103;-69
2022/03/29 04:31:52;;;;;;;14.43;8.27;;;;;;;8.00;58.07;99390.84;4515594;31;34412;-62
2022/03/29 04:34:19;;;;;;;14.63;7.85;;;;;;;7.97;58.38;99390.53;4515461;31;33699;-66
2022/03/29 04:36:47;;;;;;;12.55;7.70;;;;;;;7.85;58.83;99390.56;4516013;31;34339;-65
2022/03/29 04:39:14;;;;;;;13.77;8.30;;;;;;;8.08;58.21;99388.81;4512679;31;31901;-64
2022/03/29 04:41:42;;;;;;;16.02;8.23;;;;;;;7.96;58.55;99378.88;4515752;31;33942;-66
2022/03/29 04:44:29;;;;;;;13.77;7.85;;;;;;;8.09;57.96;99376.97;4515971;31;34893;-64
2022/03/29 04:46:57;;;;;;;12.85;7.47;;;;;;;8.60;56.73;99381.44;4515298;31;34213;-64
2022/03/29 04:49:24;;;;;;;13.60;7.65;;;;;;;8.56;57.11;99382.16;4515434;31;33885;-65
2022/03/29 04:51:51;;;;;;;16.17;8.75;;;;;;;8.43;56.96;99372.47;4514780;31;34389;-64
2022/03/29 04:54:19;;;;;;;14.45;9.70;;;;;;;8.90;55.62;99368.63;4515500;31;34640;-65
2022/03/29 04:56:46;;;;;;;14.77;9.60;;;;;;;8.90;56.08;99369.47;4514972;31;34280;-65
2022/03/29 04:59:14;;;;;;;20.92;10.55;;;;;;;8.88;55.96;99366.19;4514262;31;34310;-64
2022/03/29 05:01:42;;;;;;;15.32;10.30;;;;;;;8.35;57.59;99362.03;4514997;31;34714;-65
2022/03/29 05:04:09;;;;;;;21.37;10.50;;;;;;;8.82;56.05;99359.88;4515630;31;34181;-66
2022/03/29 05:06:37;;;;;;;15.93;9.93;;;;;;;8.70;57.13;99358.31;4508633;31;35276;-66
2022/03/29 05:09:04;;;;;;;15.70;9.45;;;;;;;9.04;55.97;99359.09;4513367;31;34088;-67
2022/03/29 05:11:33;;;;;;;16.80;10.35;;;;;;;9.19;55.45;99364.75;4508940;31;33917;-65
2022/03/29 05:14:00;;;;;;;16.10;10.32;;;;;;;8.88;56.53;99355.38;4512265;31;33937;-65
2022/03/29 05:16:28;;;;;;;16.02;9.70;;;;;;;8.41;58.50;99370.00;4514963;31;35087;-64
2022/03/29 05:18:56;;;;;;;15.80;9.55;;;;;;;9.31;55.92;99369.22;4506180;31;35171;-65
2022/03/29 05:21:24;;;;;;;17.40;9.40;;;;;;;8.83;57.72;99371.50;4511163;31;33769;-68
2022/03/29 05:23:51;;;;;;;17.33;9.88;;;;;;;9.42;56.33;99373.72;4513893;31;34701;-64
2022/03/29 05:26:19;;;;;;;17.50;10.55;;;;;;;9.87;55.75;99375.37;4511172;31;34666;-63
2022/03/29 05:28:46;;;;;;;16.40;9.93;;;;;;;10.59;52.89;99378.84;4514278;31;33818;-63
2022/03/29 05:31:14;;;;;;;17.33;9.80;;;;;;;10.69;52.42;99368.09;4512731;31;33584;-63
2022/03/29 05:33:42;;;;;;;17.45;9.23;;;;;;;11.36;51.61;99376.66;4513956;31;35094;-62
2022/03/29 05:36:10;;;;;;;14.82;8.82;;;;;;;12.04;48.45;99368.56;4514865;31;35115;-66
2022/03/29 05:38:38;;;;;;;15.32;9.73;;;;;;;12.15;49.42;99372.12;4514691;31;33434;-68
2022/03/29 05:41:05;;;;;;;14.40;9.50;;;;;;;12.76;48.27;99372.19;4514917;31;33461;-65
2022/03/29 05:43:33;;;;;;;15.93;9.73;;;;;;;13.14;48.66;99376.25;4513851;31;33656;-67
2022/03/29 05:48:53;;;;;;;16.27;9.38;;;;;;;13.83;45.15;99375.81;4507636;31;33613;-63
2022/03/29 05:51:24;;;;;;;16.37;8.80;;;;;;;14.28;44.64;99382.13;4498123;31;33859;-66
2022/03/29 05:53:53;;;;;;;13.57;9.23;;;;;;;15.02;44.91;99372.03;4507670;31;34793;-67
2022/03/29 05:56:22;;;;;;;16.73;9.32;;;;;;;15.63;41.30;99372.50;4514832;31;33790;-65
2022/03/29 05:58:50;;;;;;;13.27;8.82;;;;;;;16.25;40.69;99376.09;4514639;31;33820;-67
2022/03/29 06:01:18;;;;;;;19.15;8.70;;;;;;;16.75;38.60;99381.09;4514279;31;34224;-63
2022/03/29 06:03:46;;;;;;;14.10;8.93;;;;;;;16.94;36.51;99372.88;4514919;31;33716;-65
2022/03/29 06:06:14;;;;;;;14.45;8.70;;;;;;;17.14;36.28;99371.69;4513715;31;34445;-68
2022/03/29 06:08:42;;;;;;;14.00;8.15;;;;;;;17.95;35.51;99374.00;4515013;31;33953;-67
2022/03/29 06:11:09;;;;;;;18.70;8.25;;;;;;;18.30;34.45;99368.84;4514640;31;33134;-66
2022/03/29 06:13:37;;;;;;;14.32;8.35;;;;;;;18.82;33.66;99363.78;4514833;31;33683;-68
2022/03/29 06:16:04;;;;;;;12.35;8.18;;;;;;;19.38;31.60;99367.81;4515087;31;34316;-65
2022/03/29 06:18:33;;;;;;;14.25;8.35;;;;;;;19.94;32.11;99364.66;4514968;31;33833;-71
2022/03/29 06:21:00;;;;;;;17.35;8.18;;;;;;;20.46;29.93;99370.22;4513238;31;33737;-65
2022/03/29 06:23:28;;;;;;;13.77;8.82;;;;;;;21.08;30.13;99369.06;4513465;31;34720;-68
2022/03/29 06:25:55;;;;;;;16.27;8.52;;;;;;;20.87;30.81;99363.41;4514836;31;34255;-66
2022/03/29 06:28:23;;;;;;;18.80;9.45;;;;;;;21.70;28.72;99357.47;4514174;31;33955;-66
2022/03/29 06:30:50;;;;;;;17.58;10.10;;;;;;;21.83;27.56;99355.59;4514487;31;34348;-68
2022/03/29 06:33:20;;;;;;;15.38;9.32;;;;;;;21.23;29.44;99353.91;4514858;31;34609;-66
2022/03/29 06:35:48;;;;;;;20.75;9.77;;;;;;;21.40;28.96;99350.28;4512844;31;35070;-69
2022/03/29 06:38:20;;;;;;;21.25;9.95;;;;;;;21.90;28.19;99347.63;4511486;31;34847;-64
2022/03/29 06:40:49;;;;;;;17.80;9.95;;;;;;;21.74;28.07;99345.78;4499640;31;33738;-68
2022/03/29 06:43:16;;;;;;;15.63;9.25;;;;;;;21.96;28.15;99344.66;4511211;31;34662;-65
2022/03/29 06:45:44;;;;;;;15.73;8.48;;;;;;;22.35;26.86;99350.91;4506322;31;34100;-66
2022/03/29 06:48:13;;;;;;;16.02;8.75;;;;;;;21.90;28.37;99342.09;4502941;31;35116;-66
2022/03/29 06:50:40;;;;;;;19.62;9.25;;;;;;;22.05;26.93;99345.41;4510760;31;34310;-65
2022/03/29 06:53:08;;;;;;;15.50;8.70;;;;;;;22.05;26.89;99343.47;4514237;31;34787;-68
2022/03/29 06:55:36;;;;;;;15.70;8.88;;;;;;;22.48;27.08;99342.38;4514390;31;34328;-69
2022/03/29 06:58:04;;;;;;;12.27;8.38;;;;;;;23.06;26.29;99344.41;4507825;31;34391;-70
2022/03/29 07:00:31;;;;;;;17.75;8.57;;;;;;;22.96;25.94;99340.13;4508289;31;33260;-67
2022/03/29 07:03:02;;;;;;;13.48;7.90;;;;;;;22.77;26.35;99345.34;4507177;31;34863;-67
2022/03/29 07:05:32;;;;;;;12.25;8.30;;;;;;;22.30;28.22;99343.63;4508210;31;33658;-67
2022/03/29 07:07:59;;;;;;;15.45;8.55;;;;;;;22.66;27.47;99340.25;4508460;31;33878;-66
2022/03/29 07:13:14;;;;;;;12.10;7.30;;;;;;;22.79;28.23;99338.34;4512281;31;32738;-66
2022/03/29 07:15:42;;;;;;;13.32;7.20;;;;;;;23.10;26.16;99345.34;4507682;31;34192;-66
2022/03/29 07:18:10;;;;;;;12.20;7.90;;;;;;;23.09;26.97;99336.25;4501677;31;33510;-65
2022/03/29 07:20:38;;;;;;;15.52;8.23;;;;;;;20.16;30.64;99344.44;4506210;31;33261;-67
2022/03/29 07:23:06;;;;;;;14.77;8.55;;;;;;;21.06;28.72;99335.47;4511669;31;33946;-66
2022/03/29 07:25:34;;;;;;;14.80;8.30;;;;;;;20.86;29.45;99331.44;4508613;31;34857;-67
2022/03/29 07:28:02;;;;;;;13.30;8.25;;;;;;;21.29;30.30;99339.63;4510076;31;34573;-67
2022/03/29 07:30:33;;;;;;;12.82;7.87;;;;;;;22.49;27.84;99332.91;4501777;31;33731;-68
2022/03/29 07:33:00;;;;;;;12.23;8.05;;;;;;;22.65;27.73;99329.50;4513587;31;34093;-68
2022/03/29 07:35:29;;;;;;;12.43;7.62;;;;;;;23.36;27.75;99335.94;4509464;31;33756;-66
2022/03/29 07:37:57;;;;;;;16.30;7.50;;;;;;;24.13;26.52;99330.50;4509332;31;33961;-66
2022/03/29 07:40:28;;;;;;;11.73;7.85;;;;;;;24.53;25.36;99332.47;4515851;31;34067;-67
2022/03/29 07:42:55;;;;;;;13.65;7.57;;;;;;;24.41;24.44;99330.53;4503049;31;34794;-67
2022/03/29 07:45:23;;;;;;;12.85;7.75;;;;;;;25.01;24.69;99327.03;4516280;31;35256;-68
2022/03/29 07:47:55;;;;;;;13.60;6.95;;;;;;;25.14;24.35;99332.19;4508790;31;34676;-67
2022/03/29 07:50:43;;;;;;;13.80;8.05;;;;;;;25.55;24.55;99324.50;4508486;31;34391;-67
2022/03/29 07:53:11;;;;;;;12.50;7.50;;;;;;;24.35;24.99;99318.88;4512952;31;34364;-67
2022/03/29 07:55:40;;;;;;;11.52;6.78;;;;;;;24.90;25.12;99322.03;4511127;31;34727;-68
2022/03/29 07:58:16;;;;;;;12.20;7.85;;;;;;;25.33;24.55;99323.16;4510743;31;33260;-67
2022/03/29 08:00:44;;;;;;;12.68;8.55;;;;;;;23.23;25.16;99313.78;4508068;31;33605;-67
2022/03/29 08:03:15;;;;;;;11.80;7.32;;;;;;;23.11;26.16;99322.87;4510199;31;33501;-67
2022/03/29 08:05:44;;;;;;;12.88;7.35;;;;;;;23.44;26.92;99319.22;4509161;31;34962;-67
2022/03/29 08:08:15;;;;;;;16.08;8.23;;;;;;;23.89;25.83;99323.06;4509680;31;33411;-68
2022/03/29 08:10:45;;;;;;;14.32;7.55;;;;;;;24.98;25.06;99311.91;4509504;31;33548;-67
2022/03/29 08:13:14;;;;;;;14.40;8.13;;;;;;;25.70;24.22;99310.94;4512660;31;33711;-67
2022/03/29 08:15:44;;;;;;;16.08;8.80;;;;;;;26.46;21.15;99316.19;4503220;31;34058;-67
2022/03/29 08:18:12;;;;;;;12.60;7.95;;;;;;;26.43;20.96;99308.59;4498856;31;80444;-68
2022/03/29 08:20:40;;;;;;;12.40;7.65;;;;;;;26.21;22.74;99307.34;4514171;31;33433;-67
2022/03/29 08:23:10;;;;;;;13.38;7.12;;;;;;;25.51;21.73;99304.16;4501194;31;34765;-69
2022/03/29 08:25:39;;;;;;;17.15;8.55;;;;;;;25.83;23.70;99306.06;4515330;31;34236;-69
2022/03/29 08:28:07;;;;;;;13.27;7.80;;;;;;;25.93;22.15;99300.00;4516137;31;33902;-67
2022/03/29 08:30:35;;;;;;;15.88;8.18;;;;;;;26.67;21.22;99299.94;4515814;31;33042;-66
2022/03/29 08:33:04;;;;;;;14.43;8.45;;;;;;;26.73;18.84;99294.91;4503300;31;33502;-65
2022/03/29 08:35:33;;;;;;;13.68;7.82;;;;;;;26.47;19.82;99299.16;4509896;31;34124;-65
2022/03/29 08:38:01;;;;;;;14.75;7.90;;;;;;;26.40;20.68;99297.03;4510331;31;34419;-67
2022/03/29 08:40:48;;;;;;;14.52;7.80;;;;;;;25.55;20.48;99282.00;4515312;31;33375;-64
2022/03/29 08:43:16;;;;;;;13.82;8.32;;;;;;;25.95;20.37;99286.53;4510732;31;34052;-69
2022/03/29 08:45:47;;;;;;;13.57;7.78;;;;;;;26.02;21.96;99292.25;4506116;31;34903;-68
2022/03/29 08:48:15;;;;;;;15.20;7.78;;;;;;;24.86;21.70;99284.22;4515353;31;34046;-68
2022/03/29 08:50:45;;;;;;;12.10;7.00;;;;;;;25.51;22.55;99284.72;4514142;31;33132;-69
2022/03/29 08:53:16;;;;;;;14.10;8.18;;;;;;;25.70;21.36;99277.59;4512192;31;33533;-68
2022/03/29 08:55:45;;;;;;;14.43;8.15;;;;;;;24.67;21.07;99277.41;4506065;31;35086;-66
2022/03/29 08:58:13;;;;;;;14.07;7.20;;;;;;;24.04;23.07;99277.16;4505971;31;34683;-66
2022/03/29 09:00:42;;;;;;;15.23;8.00;;;;;;;24.14;23.23;99280.25;4512976;31;34199;-68
2022/03/29 09:03:10;;;;;;;15.77;8.40;;;;;;;24.21;23.42;99276.91;4506244;31;33654;-67
2022/03/29 09:05:39;;;;;;;13.80;7.80;;;;;;;24.77;22.11;99265.81;4514856;31;33959;-65
2022/03/29 09:08:09;;;;;;;12.77;7.32;;;;;;;23.98;23.96;99273.84;4515417;31;34167;-67
2022/03/29 09:10:44;;;;;;;14.32;7.28;;;;;;;25.12;21.56;99269.87;4514435;31;33760;-66
2022/03/29 09:13:24;;;;;;;;;;;;;;;25.47;21.74;99267.16;4514349;31;33622;-65
2022/03/29 09:15:53;;;;;;;13.40;7.47;;;;;;;24.65;21.60;99263.09;4514441;31;34657;-66
2022/03/29 09:18:22;;;;;;;11.48;6.80;;;;;;;25.36;21.64;99264.13;4512843;31;35033;-68
2022/03/29 09:21:12;;;;;;;12.88;7.45;;;;;;;25.39;22.21;99254.28;4513511;31;33918;-68
2022/03/29 09:23:42;;;;;;;14.57;7.80;;;;;;;25.72;20.39;99255.81;4506224;31;33608;-66
2022/03/29 09:26:32;;;;;;;14.27;7.47;;;;;;;25.31;22.28;99249.72;4515361;31;33757;-66
2022/03/29 09:29:00;;;;;;;13.13;7.78;;;;;;;25.67;20.87;99256.09;4504332;31;33503;-66
2022/03/29 09:31:28;;;;;;;13.30;7.78;;;;;;;24.53;21.63;99249.28;4501138;31;33224;-63
2022/03/29 09:34:13;;;;;;;12.90;7.97;;;;;;;24.65;21.75;99246.44;4512938;31;34078;-64
2022/03/29 09:36:48;;;;;;;14.32;8.32;;;;;;;24.09;22.22;99246.44;4515016;31;34649;-62
2022/03/29 09:39:37;;;;;;;13.75;8.05;;;;;;;24.01;22.61;99248.19;4511243;31;33920;-65
2022/03/29 09:42:15;;;;;;;14.15;8.32;;;;;;;22.70;23.64;99238.87;4508613;31;33487;-65
2022/03/29 09:44:46;;;;;;;13.15;7.75;;;;;;;23.78;23.21;99242.38;4513624;31;34743;-65
2022/03/29 09:47:20;;;;;;;14.63;7.50;;;;;;;23.36;23.58;99241.81;4513042;31;34163;-64
2022/03/29 09:49:54;;;;;;;13.40;7.90;;;;;;;23.87;22.66;99237.50;4506091;31;33652;-63
2022/03/29 09:52:29;;;;;;;15.95;7.85;;;;;;;24.26;21.58;99223.16;4510340;31;34543;-63
2022/03/29 09:55:09;;;;;;;12.50;7.25;;;;;;;24.14;21.85;99229.56;4512772;31;34632;-65
2022/03/29 09:57:42;;;;;;;13.52;7.72;;;;;;;24.41;21.20;99233.50;4514108;31;33649;-66
2022/03/29 10:00:13;;;;;;;11.57;7.30;;;;;;;24.03;21.72;99220.94;4509637;31;33818;-64
2022/03/29 10:02:44;;;;;;;13.25;7.35;;;;;;;23.41;23.17;99228.56;4513307;31;34671;-64
2022/03/29 10:05:15;;;;;;;10.68;6.40;;;;;;;23.53;23.92;99224.97;4514123;31;33456;-66
2022/03/29 10:09:25;;;;;;;11.32;6.87;;;;;;;24.23;22.06;99221.88;4512371;31;33916;-69
2022/03/29 10:10:43;;;;;;;10.55;6.50;;;;;;;24.03;21.50;99209.06;4502146;31;33969;-67
2022/03/29 10:13:12;;;;;;;13.85;7.10;;;;;;;24.17;22.38;99201.16;4504895;31;33287;-67
2022/03/29 10:15:41;;;;;;;12.45;7.07;;;;;;;23.86;21.77;99199.88;4507582;31;33815;-69
2022/03/29 10:18:09;;;;;;;13.62;7.47;;;;;;;24.06;24.03;99205.56;4511402;31;34290;-67
2022/03/29 10:20:36;;;;;;;12.68;6.50;;;;;;;24.73;22.47;99187.22;4514698;31;33768;-67
2022/03/29 10:23:06;;;;;;;12.52;6.85;;;;;;;24.63;21.68;99192.50;4514303;31;33596;-67
2022/03/29 10:25:34;;;;;;;12.25;7.03;;;;;;;25.14;19.75;99189.78;4512773;31;34047;-68
2022/03/29 10:28:05;;;;;;;12.18;7.30;;;;;;;24.68;20.59;99183.91;4509551;31;34183;-66
2022/03/29 10:30:37;;;;;;;11.60;6.22;;;;;;;25.48;19.72;99181.88;4514517;31;33589;-67
2022/03/29 10:33:15;;;;;;;13.52;7.75;;;;;;;25.79;19.89;99170.66;4514480;31;34020;-69
2022/03/29 10:36:12;;;;;;;11.85;6.22;;;;;;;25.38;19.44;99161.03;4514010;31;34627;-69
2022/03/29 10:38:49;;;;;;;15.63;6.97;;;;;;;25.25;19.65;99165.91;4510771;31;35075;-67
2022/03/29 10:41:26;;;;;;;14.27;6.75;;;;;;;26.39;18.44;99167.47;4506615;31;33900;-67
2022/03/29 10:44:08;;;;;;;12.00;6.28;;;;;;;26.32;17.21;99161.78;4514023;31;33400;-67
2022/03/29 10:46:40;;;;;;;15.18;6.60;;;;;;;25.46;18.01;99151.66;4514900;31;33992;-68
2022/03/29 10:49:25;;;;;;;13.25;7.30;;;;;;;25.73;19.10;99157.41;4502895;31;34448;-69
2022/03/29 10:52:16;;;;;;;11.98;7.00;;;;;;;25.94;18.96;99157.88;4500446;31;33923;-68
2022/03/29 10:54:44;;;;;;;13.85;6.75;;;;;;;26.16;18.22;99145.19;4511519;31;33639;-69
2022/03/29 10:57:24;;;;;;;14.48;7.10;;;;;;;25.86;19.93;99139.41;4508086;31;34395;-69
2022/03/29 11:00:14;;;;;;;13.60;6.90;;;;;;;26.26;19.08;99143.78;4505974;31;35155;-69
2022/03/29 11:03:07;;;;;;;12.98;6.15;;;;;;;27.25;19.22;99145.06;4508610;31;33566;-70
2022/03/29 11:06:17;;;;;;;13.27;6.87;;;;;;;27.64;17.95;99128.88;4506975;31;33403;-70
2022/03/29 11:08:48;;;;;;;13.02;6.70;;;;;;;24.75;20.39;99110.00;4507425;31;34697;-67
2022/03/29 11:11:37;;;;;;;14.27;7.00;;;;;;;26.49;19.45;99110.41;4510211;31;33542;-69
2022/03/29 11:14:27;;;;;;;12.90;6.90;;;;;;;26.64;17.41;99100.38;4502159;31;34753;-67
2022/03/29 11:17:06;;;;;;;17.37;6.97;;;;;;;25.89;17.97;99099.00;4508942;31;32068;-66
2022/03/29 11:19:46;;;;;;;11.93;6.75;;;;;;;26.39;18.56;99091.56;4509743;31;34289;-66
2022/03/29 11:22:36;;;;;;;10.95;6.78;;;;;;;25.69;19.88;99098.19;4515992;31;33714;-69
2022/03/29 11:25:09;;;;;;;15.43;6.62;;;;;;;26.08;18.53;99087.06;4515255;31;34728;-67
2022/03/29 11:27:37;;;;;;;12.35;6.87;;;;;;;26.16;19.12;99072.91;4512171;31;34405;-70
2022/03/29 11:30:09;;;;;;;15.00;7.00;;;;;;;26.19;18.02;99074.94;4516384;31;34600;-69
2022/03/29 11:32:41;;;;;;;11.80;6.75;;;;;;;26.31;17.33;99067.59;4516101;31;34058;-69
2022/03/29 11:35:11;;;;;;;13.38;6.50;;;;;;;26.76;17.61;99064.00;4516144;31;33743;-70
2022/03/29 11:37:43;;;;;;;15.02;6.95;;;;;;;27.28;17.50;99066.31;4516502;31;33347;-70
2022/03/29 11:40:17;;;;;;;12.48;7.07;;;;;;;27.60;17.36;99055.56;4513245;31;33619;-70
2022/03/29 11:42:50;;;;;;;14.73;6.53;;;;;;;26.98;17.21;99061.53;4515569;31;34656;-69
2022/03/29 11:45:23;;;;;;;16.58;7.50;;;;;;;26.35;16.62;99058.16;4515548;31;34707;-71
2022/03/29 11:48:04;;;;;;;14.95;7.68;;;;;;;25.37;17.29;99040.81;4516266;31;33767;-69
2022/03/29 11:50:52;;;;;;;13.95;6.47;;;;;;;25.20;17.27;99035.69;4516008;31;33852;-69
2022/03/29 11:53:24;;;;;;;14.95;7.32;;;;;;;24.98;18.58;99034.41;4515627;31;34314;-68